This is the latest recevied weather packets stored in our database for station/object KB1JLI. If no packets are shown the sender has not sent any weather packets the latest 10 day(s).
| Time | Temp. | Humidity | Pressure | Rain* | Wind** | Luminosity | Snow |
|---|---|---|---|---|---|---|---|
| 1777346055 | 7.78° C | 75% | 1024.3 hPa | 0 mm | - | 0 W/m² | - |
| 1777345751 | 7.78° C | 75% | 1024.5 hPa | 0 mm | - | 0 W/m² | - |
| 1777345448 | 7.78° C | 74% | 1024.5 hPa | 0 mm | - | 0 W/m² | - |
| 1777345144 | 7.78° C | 74% | 1024.6 hPa | 0 mm | - | 0 W/m² | - |
| 1777344841 | 7.78° C | 73% | 1024.4 hPa | 0 mm | - | 0 W/m² | - |
| 1777344536 | 7.78° C | 73% | 1024.6 hPa | 0 mm | - | 0 W/m² | - |
| 1777343931 | 8.33° C | 72% | 1024.5 hPa | 0 mm | - | 0 W/m² | - |
| 1777343629 | 8.33° C | 71% | 1024.3 hPa | 0 mm | - | 0 W/m² | - |
| 1777343320 | 8.89° C | 70% | 1024.4 hPa | 0 mm | - | 0 W/m² | - |
| 1777342715 | 8.89° C | 69% | 1024.5 hPa | 0 mm | - | 0 W/m² | - |
| 1777342411 | 8.89° C | 69% | 1024.5 hPa | 0 mm | - | 0 W/m² | - |
| 1777342109 | 8.89° C | 69% | 1024.6 hPa | 0 mm | - | 0 W/m² | - |
| 1777341805 | 9.44° C | 68% | 1024.7 hPa | 0 mm | - | 0 W/m² | - |
| 1777341501 | 9.44° C | 68% | 1024.7 hPa | 0 mm | - | 0 W/m² | - |
| 1777340894 | 9.44° C | 67% | 1025 hPa | 0 mm | - | 0 W/m² | - |
| 1777339684 | 10° C | 67% | 1024.9 hPa | 0 mm | - | 0 W/m² | - |
| 1777339079 | 10.56° C | 65% | 1024.8 hPa | 0 mm | - | 0 W/m² | - |
| 1777338474 | 10.56° C | 64% | 1024.8 hPa | 0 mm | - | 0 W/m² | - |
| 1777336052 | 11.67° C | 59% | 1024.7 hPa | 0 mm | - | 0 W/m² | - |
| 1777335143 | 12.22° C | 56% | 1024.5 hPa | 0 mm | - | 0 W/m² | - |
| 1777334841 | 12.22° C | 57% | 1024.1 hPa | 0 mm | - | 0 W/m² | - |
* Rain latest hour (hover to see other rain measurements)
** Current wind speed in m/s (hover to see current wind gust speed)